Time;durP1;ratioP1;P1;durP2;ratioP2;P2;SDS_P1;SDS_P2;PMS_P1;PMS_P2;Temp;Humidity;BMP_temperature;BMP_pressure;BME280_temperature;BME280_humidity;BME280_pressure;Samples;Min_cycle;Max_cycle;Signal;HPM_P1;HPM_P2
2023/01/24 00:01:43;;;;;;;16.10;7.97;;;5.00;78.80;;;;;;5008297;28;20278;-79
2023/01/24 00:04:10;;;;;;;18.25;8.35;;;5.00;78.80;;;;;;5008870;28;20536;-79
2023/01/24 00:06:37;;;;;;;19.38;8.98;;;5.00;78.80;;;;;;5010259;28;20050;-79
2023/01/24 00:09:04;;;;;;;19.83;8.82;;;5.00;78.80;;;;;;5008759;28;20664;-79
2023/01/24 00:11:47;;;;;;;16.53;8.47;;;5.00;78.70;;;;;;5006779;28;20070;-80
2023/01/24 00:14:14;;;;;;;18.20;9.48;;;5.00;78.70;;;;;;5006775;28;20742;-79
2023/01/24 00:16:42;;;;;;;18.92;8.77;;;5.00;78.70;;;;;;4992368;28;20050;-79
2023/01/24 00:19:09;;;;;;;17.48;8.48;;;5.00;78.70;;;;;;5024448;28;20060;-79
2023/01/24 00:21:36;;;;;;;19.27;9.00;;;5.00;78.80;;;;;;5008415;28;20057;-80
2023/01/24 00:24:03;;;;;;;18.30;8.40;;;5.00;78.80;;;;;;5025231;28;20050;-79
2023/01/24 00:26:30;;;;;;;18.08;8.60;;;5.00;78.70;;;;;;5025121;28;20719;-80
2023/01/24 00:28:59;;;;;;;17.38;8.40;;;5.00;78.70;;;;;;5008807;28;20645;-79
2023/01/24 00:31:26;;;;;;;19.08;8.98;;;5.00;78.70;;;;;;5008604;28;20062;-79
2023/01/24 00:33:55;;;;;;;17.33;8.25;;;5.00;78.80;;;;;;4992256;28;20149;-80
2023/01/24 00:36:22;;;;;;;18.93;8.93;;;5.00;78.70;;;;;;5005347;28;20141;-79
2023/01/24 00:38:49;;;;;;;17.50;8.32;;;5.00;78.70;;;;;;4997653;28;20316;-79
2023/01/24 00:41:16;;;;;;;19.33;9.40;;;5.00;78.80;;;;;;4988305;28;21016;-79
2023/01/24 00:43:43;;;;;;;18.90;8.60;;;5.00;78.90;;;;;;4988406;28;20140;-79
2023/01/24 00:46:11;;;;;;;17.30;8.23;;;5.00;78.90;;;;;;5007116;28;20059;-79
2023/01/24 00:48:39;;;;;;;16.60;8.00;;;5.00;78.90;;;;;;5008138;28;20046;-79
2023/01/24 00:51:06;;;;;;;18.05;7.75;;;5.00;78.90;;;;;;4991717;28;20312;-79
2023/01/24 00:53:33;;;;;;;17.58;8.48;;;5.00;78.90;;;;;;5008521;28;20074;-79
2023/01/24 00:56:00;;;;;;;18.35;8.70;;;5.00;78.80;;;;;;4991672;28;20078;-79
2023/01/24 00:58:27;;;;;;;19.05;8.77;;;5.00;78.80;;;;;;5008117;28;20047;-79
2023/01/24 01:00:56;;;;;;;18.37;8.77;;;5.00;78.70;;;;;;5007786;28;20053;-80
2023/01/24 01:03:25;;;;;;;17.70;8.73;;;5.00;78.90;;;;;;5008398;28;20341;-79
2023/01/24 01:05:58;;;;;;;19.20;9.02;;;4.90;78.90;;;;;;5006880;28;20046;-80
2023/01/24 01:08:25;;;;;;;20.35;8.68;;;4.90;78.80;;;;;;5007998;28;20057;-79
2023/01/24 01:10:53;;;;;;;18.30;9.20;;;4.90;78.80;;;;;;4990332;28;20050;-79
2023/01/24 01:13:20;;;;;;;18.83;8.87;;;4.90;78.90;;;;;;4991572;28;20050;-79
2023/01/24 01:15:47;;;;;;;20.50;8.95;;;4.90;79.00;;;;;;5009186;28;20258;-79
2023/01/24 01:18:14;;;;;;;20.40;9.10;;;4.80;79.00;;;;;;4991663;28;20100;-79
2023/01/24 01:20:42;;;;;;;22.52;9.30;;;4.80;79.00;;;;;;4991193;28;20081;-79
2023/01/24 01:23:10;;;;;;;21.08;9.25;;;4.70;79.00;;;;;;5007089;28;20038;-79
2023/01/24 01:25:39;;;;;;;21.47;9.50;;;4.70;79.20;;;;;;5024456;28;20074;-79
2023/01/24 01:28:06;;;;;;;19.42;8.65;;;4.70;79.20;;;;;;5008059;28;20448;-79
2023/01/24 01:30:33;;;;;;;21.50;9.40;;;4.70;79.20;;;;;;4990850;28;20078;-79
2023/01/24 01:33:00;;;;;;;17.60;8.38;;;4.70;79.30;;;;;;5011586;28;20598;-79
2023/01/24 01:35:27;;;;;;;19.27;9.90;;;4.70;79.40;;;;;;4989187;28;20790;-79
2023/01/24 01:37:56;;;;;;;22.53;9.27;;;4.70;79.40;;;;;;4989318;28;20140;-79
2023/01/24 01:40:23;;;;;;;19.15;9.02;;;4.70;79.40;;;;;;4989962;28;21148;-79
2023/01/24 01:42:52;;;;;;;20.77;8.68;;;4.70;79.50;;;;;;5007623;28;20060;-79
2023/01/24 01:45:38;;;;;;;18.73;9.10;;;4.70;79.50;;;;;;4991265;28;20520;-79
2023/01/24 01:48:16;;;;;;;18.30;8.60;;;4.70;79.50;;;;;;4991232;28;20046;-79
2023/01/24 01:50:48;;;;;;;19.27;8.97;;;4.70;79.50;;;;;;5007029;28;20129;-79
2023/01/24 01:53:18;;;;;;;22.77;9.55;;;4.70;79.50;;;;;;4991397;28;20349;-79
2023/01/24 01:55:50;;;;;;;19.52;9.20;;;4.70;79.60;;;;;;4990706;28;20051;-79
2023/01/24 01:58:19;;;;;;;18.27;8.43;;;4.80;79.60;;;;;;4990117;28;20066;-79
2023/01/24 02:00:50;;;;;;;19.95;9.38;;;4.80;79.60;;;;;;4987950;28;20517;-80
2023/01/24 02:03:39;;;;;;;20.23;9.07;;;4.80;79.60;;;;;;4999689;28;20125;-79
2023/01/24 02:06:14;;;;;;;17.65;8.55;;;4.80;79.60;;;;;;5007359;28;20277;-79
2023/01/24 02:08:44;;;;;;;17.75;8.43;;;4.90;79.50;;;;;;5005745;28;20053;-79
2023/01/24 02:16:41;;;;;;;19.87;8.90;;;4.90;79.40;;;;;;5005201;28;20043;-79
2023/01/24 02:19:16;;;;;;;19.67;8.98;;;4.90;79.40;;;;;;5005201;28;20280;-79
2023/01/24 02:21:45;;;;;;;17.85;8.13;;;4.90;79.40;;;;;;5023682;28;20050;-79
2023/01/24 02:24:23;;;;;;;18.60;8.73;;;4.90;79.30;;;;;;4993161;28;20046;-79
2023/01/24 02:26:51;;;;;;;18.83;8.30;;;4.90;79.30;;;;;;5008727;28;20047;-79
2023/01/24 02:29:18;;;;;;;18.03;8.60;;;4.90;79.30;;;;;;5025644;28;20969;-79
2023/01/24 02:31:57;;;;;;;17.05;7.63;;;4.90;79.30;;;;;;4992580;28;20277;-79
2023/01/24 02:34:25;;;;;;;17.77;7.80;;;4.90;79.40;;;;;;4992773;28;20057;-79
2023/01/24 02:36:55;;;;;;;16.02;7.07;;;4.90;79.20;;;;;;5010406;28;20050;-79
2023/01/24 02:39:30;;;;;;;16.10;7.57;;;5.00;79.20;;;;;;4993785;28;20468;-79
2023/01/24 02:42:03;;;;;;;17.60;7.77;;;4.90;79.10;;;;;;4993790;28;20061;-79
2023/01/24 02:44:38;;;;;;;14.65;6.95;;;4.90;79.00;;;;;;4993544;28;21128;-79
2023/01/24 02:47:05;;;;;;;14.20;7.18;;;4.90;79.00;;;;;;4993838;28;20055;-79
2023/01/24 02:49:32;;;;;;;16.75;7.63;;;4.90;78.90;;;;;;5010211;28;20057;-79
2023/01/24 02:54:44;;;;;;;16.63;7.63;;;4.80;79.00;;;;;;5009723;28;20050;-79
2023/01/24 02:59:57;;;;;;;15.50;7.32;;;4.80;79.00;;;;;;4990344;28;20051;-79
2023/01/24 03:02:24;;;;;;;15.23;7.18;;;4.70;79.00;;;;;;5009229;28;20054;-79
2023/01/24 03:04:52;;;;;;;15.05;7.32;;;4.80;79.00;;;;;;5010220;28;20054;-80
2023/01/24 03:07:19;;;;;;;16.17;7.20;;;4.70;78.90;;;;;;4993680;28;20146;-79
2023/01/24 03:09:52;;;;;;;14.20;6.88;;;4.70;78.90;;;;;;5009673;28;20297;-79
2023/01/24 03:34:45;;;;;;;16.53;7.77;;;4.50;78.40;;;;;;5009648;28;20092;-79
2023/01/24 03:37:13;;;;;;;14.73;7.50;;;4.50;78.30;;;;;;5009486;28;20286;-79
2023/01/24 03:39:58;;;;;;;16.02;7.07;;;4.50;78.10;;;;;;4992679;28;20520;-80
2023/01/24 03:42:28;;;;;;;14.52;6.53;;;4.50;78.10;;;;;;4992959;28;20046;-79
2023/01/24 03:44:57;;;;;;;15.07;7.63;;;4.40;78.10;;;;;;4992717;28;20452;-79
2023/01/24 03:47:24;;;;;;;17.03;7.20;;;4.40;78.00;;;;;;5008594;28;20084;-79
2023/01/24 03:52:36;;;;;;;16.08;7.32;;;4.30;78.30;;;;;;5034906;23;20047;-80
2023/01/24 03:55:07;;;;;;;15.25;7.38;;;4.30;78.60;;;;;;4972496;28;20157;-79
2023/01/24 03:57:35;;;;;;;14.77;6.65;;;4.30;78.40;;;;;;4972231;28;20474;-79
2023/01/24 04:00:10;;;;;;;15.60;7.40;;;4.30;78.30;;;;;;4988927;28;20055;-79
2023/01/24 04:02:44;;;;;;;16.83;7.35;;;4.30;78.50;;;;;;4989254;28;20377;-79
2023/01/24 04:05:15;;;;;;;14.43;6.90;;;4.30;78.60;;;;;;4976551;28;20110;-79
2023/01/24 04:07:44;;;;;;;15.70;7.57;;;4.30;78.70;;;;;;4989337;28;20058;-79
2023/01/24 04:10:13;;;;;;;16.27;7.53;;;4.30;78.80;;;;;;4985209;28;20044;-79
2023/01/24 04:12:44;;;;;;;16.40;7.50;;;4.30;79.00;;;;;;4969106;28;20094;-79
2023/01/24 04:15:17;;;;;;;17.50;7.78;;;4.40;79.00;;;;;;4989435;28;20255;-79
2023/01/24 04:17:46;;;;;;;16.85;8.00;;;4.40;78.90;;;;;;4972889;28;20054;-79
2023/01/24 04:20:14;;;;;;;16.50;7.57;;;4.40;78.80;;;;;;4988823;28;20047;-79
2023/01/24 04:22:41;;;;;;;12.95;5.97;;;4.40;78.90;;;;;;4987517;28;20057;-79
2023/01/24 04:25:10;;;;;;;13.23;6.27;;;4.50;78.70;;;;;;4986102;28;20055;-79
2023/01/24 04:27:38;;;;;;;15.40;6.65;;;4.50;78.30;;;;;;4968597;28;20266;-79
2023/01/24 04:30:12;;;;;;;13.00;6.57;;;4.40;77.90;;;;;;4988765;28;20058;-79
2023/01/24 04:32:43;;;;;;;11.88;5.45;;;4.40;78.20;;;;;;4989028;28;20058;-79
2023/01/24 04:35:36;;;;;;;15.00;6.35;;;4.40;77.80;;;;;;4989335;28;20062;-79
2023/01/24 04:38:04;;;;;;;13.43;6.03;;;4.30;77.80;;;;;;4988786;28;20154;-79
2023/01/24 04:40:59;;;;;;;14.48;6.68;;;4.20;77.80;;;;;;4989210;28;20267;-79
2023/01/24 04:43:27;;;;;;;15.40;6.97;;;4.20;78.20;;;;;;4972345;28;20054;-79
2023/01/24 04:45:59;;;;;;;13.73;6.35;;;4.20;78.60;;;;;;4988705;28;20058;-79
2023/01/24 04:48:37;;;;;;;11.35;5.72;;;4.20;78.60;;;;;;4988649;28;20039;-79
2023/01/24 04:51:05;;;;;;;12.73;6.03;;;4.30;78.90;;;;;;4988716;28;20164;-79
2023/01/24 04:53:35;;;;;;;12.40;5.82;;;4.30;78.40;;;;;;4971755;28;20286;-79
2023/01/24 04:56:03;;;;;;;12.43;5.07;;;4.20;78.30;;;;;;4988854;28;20054;-79
2023/01/24 04:58:34;;;;;;;12.80;5.80;;;4.20;78.40;;;;;;4971152;28;20594;-79
2023/01/24 05:01:03;;;;;;;12.68;5.68;;;4.20;78.40;;;;;;4972444;28;21007;-79
2023/01/24 05:03:31;;;;;;;15.43;6.73;;;4.20;78.40;;;;;;4988170;28;20055;-79
2023/01/24 05:06:00;;;;;;;12.80;5.93;;;4.20;78.70;;;;;;4988605;28;20251;-79
2023/01/24 05:08:27;;;;;;;13.13;5.65;;;4.30;78.60;;;;;;4988262;28;20050;-79
2023/01/24 05:10:55;;;;;;;13.75;6.03;;;4.30;78.40;;;;;;4987968;28;20684;-79
2023/01/24 05:13:23;;;;;;;11.40;5.47;;;4.30;78.30;;;;;;5004999;28;20050;-79
2023/01/24 05:15:52;;;;;;;11.57;5.60;;;4.30;78.20;;;;;;5004838;28;20087;-79
2023/01/24 05:18:20;;;;;;;13.07;5.55;;;4.20;78.10;;;;;;4987288;28;20286;-79
2023/01/24 05:20:47;;;;;;;12.82;5.60;;;4.20;78.30;;;;;;4988462;28;20054;-79
2023/01/24 05:23:16;;;;;;;11.10;5.35;;;4.20;78.30;;;;;;4987793;28;20062;-79
2023/01/24 05:25:47;;;;;;;11.27;5.07;;;4.30;78.10;;;;;;4972136;28;20121;-79
2023/01/24 05:28:14;;;;;;;11.83;5.20;;;4.20;77.90;;;;;;4972281;28;20055;-79
2023/01/24 05:30:44;;;;;;;12.48;5.05;;;4.20;77.80;;;;;;4987954;28;20267;-79
2023/01/24 05:33:22;;;;;;;10.63;4.63;;;4.20;78.00;;;;;;4988034;28;20054;-80
2023/01/24 05:35:57;;;;;;;11.43;5.20;;;4.20;78.20;;;;;;4971858;28;20050;-80
2023/01/24 05:38:26;;;;;;;11.38;4.88;;;4.20;77.80;;;;;;4971935;28;20055;-79
2023/01/24 05:40:54;;;;;;;11.27;4.50;;;4.10;77.70;;;;;;4971763;28;20055;-79
2023/01/24 05:43:21;;;;;;;10.38;4.78;;;4.10;77.80;;;;;;4988064;28;20274;-79
2023/01/24 05:45:48;;;;;;;11.93;5.38;;;4.10;77.70;;;;;;4971826;28;20050;-79
2023/01/24 05:48:16;;;;;;;11.30;4.85;;;4.10;77.60;;;;;;4988106;28;20497;-79
2023/01/24 05:50:43;;;;;;;12.25;4.82;;;4.10;77.80;;;;;;4987735;28;20094;-79
2023/01/24 05:53:11;;;;;;;10.93;5.23;;;4.00;77.80;;;;;;4986441;28;20055;-79
2023/01/24 05:55:39;;;;;;;10.52;5.03;;;4.00;77.70;;;;;;4987119;28;20250;-79
2023/01/24 05:58:06;;;;;;;10.70;5.00;;;4.00;77.70;;;;;;4990576;28;20077;-79
2023/01/24 06:00:38;;;;;;;12.93;5.00;;;4.00;77.80;;;;;;4991188;28;20047;-79
2023/01/24 06:03:24;;;;;;;10.52;4.72;;;3.90;78.10;;;;;;4985029;28;20054;-78
2023/01/24 06:05:55;;;;;;;12.07;4.63;;;3.90;78.70;;;;;;4991548;28;20051;-80
2023/01/24 06:08:25;;;;;;;9.93;4.80;;;3.90;78.50;;;;;;4975198;28;20259;-79
2023/01/24 06:10:53;;;;;;;10.38;4.97;;;3.90;78.20;;;;;;4989921;28;20054;-79
2023/01/24 06:13:23;;;;;;;10.18;4.65;;;3.90;78.60;;;;;;4991368;28;20047;-79
2023/01/24 06:15:50;;;;;;;10.85;5.07;;;3.90;79.00;;;;;;4974841;28;20058;-79
2023/01/24 06:18:19;;;;;;;9.70;4.97;;;3.90;79.00;;;;;;4990994;28;20058;-79
2023/01/24 06:20:49;;;;;;;9.98;4.30;;;4.00;78.80;;;;;;4990604;28;20259;-79
2023/01/24 06:23:24;;;;;;;11.48;4.70;;;4.00;78.50;;;;;;4974548;28;20093;-79
2023/01/24 06:25:55;;;;;;;10.88;4.70;;;4.00;78.70;;;;;;4974720;28;20058;-80
2023/01/24 06:28:22;;;;;;;11.25;4.80;;;3.90;78.40;;;;;;4990868;28;20065;-79
2023/01/24 06:30:57;;;;;;;11.10;4.90;;;3.90;78.90;;;;;;4989282;28;20059;-80
2023/01/24 06:33:36;;;;;;;12.13;5.40;;;3.90;78.60;;;;;;4991107;28;20366;-79
2023/01/24 06:36:27;;;;;;;11.05;4.85;;;3.90;78.50;;;;;;4992355;28;20118;-79
2023/01/24 06:38:55;;;;;;;11.35;4.82;;;3.90;78.40;;;;;;4990696;28;20058;-79
2023/01/24 06:41:24;;;;;;;10.82;5.05;;;3.90;78.60;;;;;;4991993;28;20047;-79
2023/01/24 06:43:52;;;;;;;12.30;5.40;;;3.90;78.30;;;;;;4990738;28;20077;-80
2023/01/24 06:46:19;;;;;;;11.15;5.28;;;3.90;78.30;;;;;;4990665;28;20269;-79
2023/01/24 06:48:46;;;;;;;13.85;5.07;;;3.90;78.20;;;;;;4990160;28;20150;-79
2023/01/24 06:51:14;;;;;;;12.65;5.25;;;3.90;78.30;;;;;;4974418;28;20047;-79
2023/01/24 06:53:41;;;;;;;11.02;5.13;;;3.90;78.20;;;;;;4991579;28;20058;-79
2023/01/24 06:56:09;;;;;;;11.80;5.40;;;3.90;78.20;;;;;;4990873;28;20046;-79
2023/01/24 06:58:37;;;;;;;10.60;4.93;;;3.90;78.30;;;;;;4990477;28;20397;-79
2023/01/24 07:01:05;;;;;;;11.65;5.13;;;3.90;79.00;;;;;;4989958;28;20049;-79
2023/01/24 07:03:32;;;;;;;11.65;4.97;;;3.90;79.60;;;;;;4990066;28;20058;-79
2023/01/24 07:05:59;;;;;;;11.77;4.78;;;3.90;79.30;;;;;;4989004;28;20051;-79
2023/01/24 07:08:26;;;;;;;11.17;4.90;;;3.90;79.00;;;;;;4989159;28;20505;-79
2023/01/24 07:10:53;;;;;;;13.13;5.43;;;3.90;78.70;;;;;;4989169;28;20398;-79
2023/01/24 07:13:20;;;;;;;12.05;5.13;;;3.90;78.40;;;;;;4989948;28;20082;-79
2023/01/24 07:15:49;;;;;;;12.73;5.72;;;3.90;78.60;;;;;;4990034;28;20537;-79
2023/01/24 07:18:17;;;;;;;13.20;6.05;;;3.90;78.40;;;;;;4990030;28;20122;-79
2023/01/24 07:20:45;;;;;;;12.47;5.30;;;3.90;78.40;;;;;;4988221;28;20050;-79
2023/01/24 07:23:21;;;;;;;12.02;5.22;;;3.90;78.40;;;;;;4989342;28;20323;-79
2023/01/24 07:25:48;;;;;;;11.43;5.40;;;3.90;78.20;;;;;;4972509;28;20589;-79
2023/01/24 07:28:16;;;;;;;11.32;5.68;;;3.90;78.10;;;;;;4989763;28;20457;-79
2023/01/24 07:30:44;;;;;;;12.98;5.82;;;3.80;78.60;;;;;;4989061;28;20050;-79
2023/01/24 07:33:14;;;;;;;12.20;5.60;;;3.80;78.60;;;;;;4989508;28;20094;-80
2023/01/24 07:35:42;;;;;;;12.70;5.90;;;3.90;78.40;;;;;;4997405;28;20277;-79
2023/01/24 07:38:09;;;;;;;13.88;5.88;;;3.90;78.80;;;;;;4986090;28;20113;-80
2023/01/24 07:40:37;;;;;;;11.65;5.72;;;3.90;78.80;;;;;;4988389;28;20123;-80
2023/01/24 07:43:05;;;;;;;11.13;5.22;;;3.90;78.70;;;;;;4987703;28;20062;-81
2023/01/24 07:45:34;;;;;;;13.53;5.33;;;3.90;78.80;;;;;;4999117;28;20047;-81
2023/01/24 07:48:02;;;;;;;12.07;5.55;;;3.90;78.60;;;;;;5001655;28;20283;-80
2023/01/24 07:50:31;;;;;;;11.45;5.38;;;3.90;78.50;;;;;;4976928;28;20125;-81
2023/01/24 07:52:59;;;;;;;11.48;5.15;;;3.90;78.50;;;;;;4969098;28;20082;-80
2023/01/24 07:55:27;;;;;;;11.90;5.53;;;3.90;78.40;;;;;;5083891;22;20164;-81
2023/01/24 07:57:59;;;;;;;13.23;5.60;;;3.90;78.30;;;;;;5045036;28;20132;-80
2023/01/24 08:00:27;;;;;;;12.40;5.57;;;3.90;78.30;;;;;;5045649;28;20273;-81
2023/01/24 08:02:54;;;;;;;13.50;5.60;;;3.90;78.30;;;;;;5047010;28;20049;-81
2023/01/24 08:05:21;;;;;;;12.98;5.35;;;3.90;78.70;;;;;;5048604;28;20050;-80
2023/01/24 08:07:49;;;;;;;13.88;5.63;;;3.90;79.20;;;;;;5048710;28;20054;-80
2023/01/24 08:10:17;;;;;;;12.07;5.63;;;3.90;79.10;;;;;;5048596;28;20966;-80
2023/01/24 08:12:44;;;;;;;13.63;5.43;;;3.90;78.70;;;;;;5048660;28;20303;-79
2023/01/24 08:15:11;;;;;;;11.35;4.95;;;3.90;78.70;;;;;;5068654;28;20045;-77
2023/01/24 08:17:39;;;;;;;12.05;5.40;;;3.90;78.50;;;;;;5056150;28;20053;-77
2023/01/24 08:20:08;;;;;;;11.40;5.47;;;3.90;78.40;;;;;;5049004;28;20143;-77
2023/01/24 08:22:36;;;;;;;12.03;5.03;;;3.80;78.30;;;;;;5052955;28;20049;-76
2023/01/24 08:25:05;;;;;;;12.30;6.10;;;3.80;78.40;;;;;;5052064;28;20283;-77
2023/01/24 08:27:32;;;;;;;13.65;5.57;;;3.80;78.50;;;;;;5046815;28;20132;-78
2023/01/24 08:29:59;;;;;;;12.55;5.15;;;3.80;79.20;;;;;;5046054;28;20559;-79
2023/01/24 08:32:26;;;;;;;11.88;4.80;;;3.80;78.60;;;;;;4958748;28;20105;-80
2023/01/24 08:34:53;;;;;;;11.50;5.40;;;3.80;78.40;;;;;;5043052;28;20058;-79
2023/01/24 08:37:20;;;;;;;11.50;5.65;;;3.70;78.20;;;;;;5050537;28;20249;-79
2023/01/24 08:39:47;;;;;;;12.30;5.78;;;3.70;79.10;;;;;;5033852;28;20145;-79
2023/01/24 08:42:16;;;;;;;14.18;5.25;;;3.70;79.00;;;;;;5040967;28;20164;-80
2023/01/24 08:44:43;;;;;;;10.98;5.05;;;3.70;79.00;;;;;;5056390;28;20049;-79
2023/01/24 08:47:10;;;;;;;11.53;5.20;;;3.70;79.30;;;;;;5048133;28;20053;-83
2023/01/24 08:49:37;;;;;;;10.57;5.40;;;3.70;78.80;;;;;;5030592;28;20257;-78
2023/01/24 08:52:05;;;;;;;12.38;5.53;;;3.70;79.30;;;;;;5047941;28;20598;-77
2023/01/24 08:54:34;;;;;;;11.38;5.10;;;3.80;80.10;;;;;;5051713;28;20053;-81
2023/01/24 08:57:02;;;;;;;13.15;5.72;;;3.80;79.80;;;;;;5028796;28;20068;-80
2023/01/24 08:59:30;;;;;;;12.83;5.70;;;3.90;79.30;;;;;;5049448;28;20045;-81
2023/01/24 09:01:57;;;;;;;11.93;5.40;;;3.90;79.10;;;;;;5048661;28;20809;-89
2023/01/24 09:04:26;;;;;;;12.18;5.35;;;3.90;79.20;;;;;;5036662;28;20056;-89
2023/01/24 09:06:55;;;;;;;12.65;5.70;;;3.90;79.50;;;;;;5053576;28;20084;-90
2023/01/24 09:09:24;;;;;;;12.15;5.40;;;3.90;79.50;;;;;;5053224;28;20085;-83
2023/01/24 09:11:52;;;;;;;12.70;5.80;;;3.90;79.50;;;;;;5045382;28;20046;-84
2023/01/24 09:14:19;;;;;;;11.82;6.20;;;3.90;79.10;;;;;;5032445;28;20343;-87
2023/01/24 09:16:48;;;;;;;12.07;5.93;;;3.90;78.70;;;;;;5032593;28;20127;-87
2023/01/24 09:19:16;;;;;;;13.10;5.93;;;3.90;78.90;;;;;;5031469;28;20076;-85
2023/01/24 09:21:44;;;;;;;11.85;5.57;;;3.90;79.10;;;;;;5030767;28;20053;-85
2023/01/24 09:24:12;;;;;;;11.97;5.70;;;3.90;78.70;;;;;;5023036;28;20144;-87
2023/01/24 09:26:44;;;;;;;12.38;5.95;;;3.90;78.30;;;;;;5047126;28;20268;-85
2023/01/24 09:29:12;;;;;;;13.18;5.43;;;3.90;78.20;;;;;;5017599;28;20120;-84
2023/01/24 09:31:39;;;;;;;12.60;5.40;;;3.90;78.20;;;;;;5041361;28;20049;-88
2023/01/24 09:34:07;;;;;;;12.50;5.75;;;3.80;78.50;;;;;;5032385;28;20046;-81
2023/01/24 09:36:35;;;;;;;12.70;5.40;;;3.90;79.30;;;;;;5047611;28;20133;-86
2023/01/24 09:39:03;;;;;;;11.13;5.38;;;3.90;78.70;;;;;;5048998;28;20338;-86
2023/01/24 09:41:42;;;;;;;11.18;5.22;;;3.90;79.10;;;;;;5035527;28;20132;-86
2023/01/24 09:44:21;;;;;;;11.85;5.10;;;3.90;79.50;;;;;;5037821;28;20141;-86
2023/01/24 09:46:52;;;;;;;12.57;5.35;;;3.90;79.10;;;;;;5030392;28;20049;-87
2023/01/24 09:49:28;;;;;;;12.70;5.70;;;3.90;78.70;;;;;;5033054;28;20045;-81
2023/01/24 09:51:55;;;;;;;11.38;5.55;;;3.90;78.90;;;;;;5041837;28;20311;-81
2023/01/24 09:54:32;;;;;;;11.18;5.53;;;3.90;78.80;;;;;;5049076;28;20045;-83
2023/01/24 09:56:59;;;;;;;11.45;5.38;;;3.90;78.70;;;;;;5050352;28;20088;-81
2023/01/24 09:59:37;;;;;;;13.20;6.20;;;3.90;78.70;;;;;;5046619;28;20119;-83
2023/01/24 10:02:17;;;;;;;11.57;5.73;;;3.90;78.60;;;;;;5052154;28;20083;-82
2023/01/24 10:04:47;;;;;;;12.23;5.97;;;3.90;78.60;;;;;;5055218;28;20268;-80
2023/01/24 10:07:41;;;;;;;11.70;5.38;;;3.90;78.70;;;;;;5055604;28;20049;-81
2023/01/24 10:10:21;;;;;;;13.32;6.13;;;3.90;78.60;;;;;;5059166;28;20456;-83
2023/01/24 10:12:54;;;;;;;12.50;6.13;;;4.00;78.60;;;;;;5019781;28;20076;-82
2023/01/24 10:15:35;;;;;;;12.67;6.00;;;4.00;78.70;;;;;;5029576;28;20144;-83
2023/01/24 10:18:27;;;;;;;13.27;5.82;;;4.00;78.80;;;;;;5055202;28;20307;-83
2023/01/24 10:21:15;;;;;;;11.50;5.93;;;4.00;78.60;;;;;;5038119;28;20541;-83
2023/01/24 10:23:44;;;;;;;12.15;5.63;;;4.00;79.00;;;;;;5046993;28;20147;-83
2023/01/24 10:26:19;;;;;;;13.57;6.38;;;4.00;78.50;;;;;;5046825;28;20057;-82
2023/01/24 10:28:50;;;;;;;12.13;6.23;;;4.00;78.50;;;;;;5042682;28;20053;-80
2023/01/24 10:31:22;;;;;;;13.02;6.63;;;4.10;78.60;;;;;;5038952;28;21050;-79
2023/01/24 10:33:52;;;;;;;13.07;6.00;;;4.00;78.40;;;;;;5029417;28;20053;-80
2023/01/24 10:36:31;;;;;;;10.95;5.43;;;4.00;78.60;;;;;;5041446;28;20482;-80
2023/01/24 10:38:58;;;;;;;12.98;5.90;;;4.00;78.60;;;;;;5047509;28;20096;-80
2023/01/24 10:41:27;;;;;;;12.33;6.10;;;4.10;78.60;;;;;;5046056;28;20554;-80
2023/01/24 10:43:59;;;;;;;11.77;5.80;;;4.00;78.40;;;;;;5049252;28;20375;-79
2023/01/24 10:46:49;;;;;;;12.13;6.03;;;4.00;78.90;;;;;;5049049;28;20124;-79
2023/01/24 10:49:21;;;;;;;12.02;5.63;;;4.00;78.60;;;;;;5048125;28;21172;-79
2023/01/24 10:52:17;;;;;;;11.63;5.95;;;4.10;79.20;;;;;;5050339;28;20137;-80
2023/01/24 10:54:47;;;;;;;13.07;5.73;;;4.10;78.70;;;;;;5014822;28;20503;-80
2023/01/24 10:57:20;;;;;;;11.27;6.05;;;4.10;79.00;;;;;;5041473;28;20375;-80
2023/01/24 10:59:48;;;;;;;11.40;5.45;;;4.10;78.40;;;;;;5045342;28;20056;-77
2023/01/24 11:02:22;;;;;;;12.98;6.03;;;4.10;78.30;;;;;;5054165;28;20522;-78
2023/01/24 11:04:59;;;;;;;11.52;5.63;;;4.10;78.70;;;;;;5048269;28;20052;-77
2023/01/24 11:07:32;;;;;;;11.73;5.70;;;4.00;78.60;;;;;;5047965;28;20057;-78
2023/01/24 11:10:01;;;;;;;12.82;6.00;;;4.00;78.40;;;;;;5048579;28;20257;-78
2023/01/24 11:12:28;;;;;;;12.57;5.80;;;4.00;78.70;;;;;;5043444;28;20103;-77
2023/01/24 11:14:56;;;;;;;13.98;5.68;;;4.00;78.70;;;;;;5044943;28;20072;-81
2023/01/24 11:17:32;;;;;;;13.05;5.57;;;4.00;79.00;;;;;;5048507;28;20049;-81
2023/01/24 11:20:03;;;;;;;11.03;5.40;;;4.00;78.40;;;;;;5057486;28;20110;-81
2023/01/24 11:22:34;;;;;;;13.32;6.00;;;4.00;78.90;;;;;;5029358;28;20254;-81
2023/01/24 11:25:13;;;;;;;13.02;5.72;;;4.00;78.90;;;;;;5046733;28;20053;-80
2023/01/24 11:27:46;;;;;;;12.13;5.93;;;4.10;79.00;;;;;;5035800;28;20201;-81
2023/01/24 11:30:18;;;;;;;13.63;6.05;;;4.10;78.60;;;;;;5041176;28;20049;-81
2023/01/24 11:32:56;;;;;;;11.40;5.70;;;4.10;78.40;;;;;;5050078;28;20602;-81
2023/01/24 11:35:25;;;;;;;12.52;6.40;;;4.00;77.90;;;;;;5044594;28;20335;-80
2023/01/24 11:38:15;;;;;;;12.20;5.95;;;4.00;77.70;;;;;;5047245;28;20088;-81
2023/01/24 11:40:45;;;;;;;12.63;6.05;;;4.00;77.90;;;;;;5044617;28;20132;-80
2023/01/24 11:43:40;;;;;;;12.00;5.50;;;3.90;78.60;;;;;;5048729;28;20129;-80
2023/01/24 11:46:32;;;;;;;12.30;5.93;;;4.00;79.00;;;;;;5049392;28;20123;-80
2023/01/24 11:49:12;;;;;;;11.82;6.25;;;4.00;78.60;;;;;;5032031;28;20361;-80
2023/01/24 11:51:51;;;;;;;12.23;6.00;;;4.00;78.30;;;;;;5039950;28;20135;-81
2023/01/24 11:54:36;;;;;;;11.00;5.68;;;4.00;78.30;;;;;;5050276;28;20073;-81
2023/01/24 11:57:11;;;;;;;12.50;6.15;;;4.00;78.40;;;;;;5047343;28;20077;-80
2023/01/24 11:59:58;;;;;;;13.20;5.93;;;4.00;78.50;;;;;;5049447;28;20132;-79
2023/01/24 12:02:40;;;;;;;11.80;5.68;;;4.00;78.30;;;;;;5047525;28;20370;-79
2023/01/24 12:05:30;;;;;;;12.38;5.55;;;4.00;78.50;;;;;;5043994;28;20052;-79
2023/01/24 12:08:11;;;;;;;11.98;5.93;;;4.00;78.70;;;;;;5046249;28;20499;-80
2023/01/24 12:10:48;;;;;;;13.32;5.97;;;4.00;78.70;;;;;;5031400;28;20571;-80
2023/01/24 12:13:27;;;;;;;13.50;6.30;;;4.10;79.10;;;;;;5041893;28;21168;-80
2023/01/24 12:16:04;;;;;;;13.55;6.32;;;4.10;78.60;;;;;;5046497;28;20327;-79
2023/01/24 12:18:49;;;;;;;13.00;5.80;;;4.10;78.70;;;;;;5030523;28;20204;-80
2023/01/24 12:21:16;;;;;;;13.65;6.45;;;4.10;78.70;;;;;;5013085;28;20418;-80
2023/01/24 12:23:52;;;;;;;12.25;6.07;;;4.10;78.50;;;;;;5029680;28;20128;-80
2023/01/24 12:26:25;;;;;;;13.77;5.93;;;4.10;78.50;;;;;;5047758;28;20597;-81
2023/01/24 12:29:01;;;;;;;13.27;6.00;;;4.10;78.60;;;;;;5046565;28;20292;-81
2023/01/24 12:31:38;;;;;;;13.82;6.32;;;4.10;78.50;;;;;;5054687;28;20050;-78
2023/01/24 12:34:17;;;;;;;12.98;6.45;;;4.10;78.30;;;;;;5047452;28;20073;-85
2023/01/24 12:36:49;;;;;;;13.45;6.10;;;4.10;78.20;;;;;;5026988;28;20074;-82
2023/01/24 12:39:20;;;;;;;11.63;5.90;;;4.10;78.20;;;;;;5026287;28;21043;-82
2023/01/24 12:41:55;;;;;;;13.50;6.80;;;4.10;78.30;;;;;;5036129;28;20250;-85
2023/01/24 12:44:30;;;;;;;14.35;6.80;;;4.10;78.10;;;;;;5024534;28;20105;-84
2023/01/24 12:47:11;;;;;;;12.98;6.40;;;4.00;78.50;;;;;;5029859;28;20108;-82
2023/01/24 12:49:46;;;;;;;13.60;6.45;;;4.00;78.60;;;;;;5040412;28;20060;-85
2023/01/24 12:52:21;;;;;;;15.93;6.70;;;4.00;78.60;;;;;;5025500;28;20049;-85
2023/01/24 12:54:54;;;;;;;13.13;6.05;;;4.10;78.50;;;;;;5047868;28;20863;-83
2023/01/24 12:57:27;;;;;;;13.77;6.35;;;4.10;78.80;;;;;;5047732;28;20132;-82
2023/01/24 12:59:55;;;;;;;13.13;6.25;;;4.10;78.40;;;;;;5047516;28;20091;-81
2023/01/24 13:02:44;;;;;;;13.10;6.05;;;4.10;78.60;;;;;;5031097;28;20053;-84
2023/01/24 13:05:34;;;;;;;12.03;5.50;;;4.10;78.80;;;;;;5045596;28;20107;-82
2023/01/24 13:08:12;;;;;;;12.50;5.45;;;4.10;78.50;;;;;;5029982;28;20259;-82
2023/01/24 13:10:52;;;;;;;12.00;5.65;;;4.10;78.10;;;;;;5047329;28;20077;-82
2023/01/24 13:13:25;;;;;;;12.45;5.68;;;4.10;78.70;;;;;;5040716;28;20073;-84
2023/01/24 13:16:04;;;;;;;14.52;6.40;;;4.10;79.10;;;;;;5018332;28;20057;-84
2023/01/24 13:18:49;;;;;;;13.27;6.37;;;4.10;78.40;;;;;;5047464;28;20069;-83
2023/01/24 13:21:22;;;;;;;12.18;5.47;;;4.10;78.10;;;;;;5040182;28;20272;-83
2023/01/24 13:24:34;;;;;;;12.30;6.10;;;4.10;78.20;;;;;;5064247;28;20056;-78
2023/01/24 13:27:15;;;;;;;12.90;6.40;;;4.10;78.10;;;;;;4971930;28;20074;-78
2023/01/24 13:30:00;;;;;;;12.45;6.03;;;4.00;77.80;;;;;;5015608;28;20046;-78
2023/01/24 13:32:28;;;;;;;12.30;5.83;;;4.00;77.70;;;;;;5043685;28;20143;-78
2023/01/24 13:34:58;;;;;;;12.65;5.82;;;4.00;77.80;;;;;;5052303;28;20256;-79
2023/01/24 13:37:28;;;;;;;13.25;6.82;;;4.00;78.20;;;;;;5050182;28;20162;-81
2023/01/24 13:40:05;;;;;;;14.05;6.40;;;4.00;78.40;;;;;;5046922;28;20046;-80
2023/01/24 13:42:57;;;;;;;13.07;6.90;;;4.00;78.60;;;;;;5030059;28;20073;-81
2023/01/24 13:45:52;;;;;;;12.80;6.60;;;4.10;78.30;;;;;;5029185;28;20518;-82
2023/01/24 13:48:54;;;;;;;13.02;6.30;;;4.10;78.30;;;;;;5020267;28;20327;-86